Time;durP1;ratioP1;P1;durP2;ratioP2;P2;SDS_P1;SDS_P2;PMS_P1;PMS_P2;Temp;Humidity;BMP_temperature;BMP_pressure;BME280_temperature;BME280_humidity;BME280_pressure;Samples;Min_cycle;Max_cycle;Signal;HPM_P1;HPM_P2
2023/09/09 00:00:50;;;;;;;19.38;17.27;;;18.80;99.90;;;;;;4960399;28;89657;-36
2023/09/09 00:03:16;;;;;;;20.70;18.58;;;18.70;99.90;;;;;;4959741;28;89787;-34
2023/09/09 00:05:41;;;;;;;22.60;20.17;;;18.60;99.90;;;;;;4945670;28;90131;-34
2023/09/09 00:08:07;;;;;;;19.25;17.45;;;18.50;99.90;;;;;;4959357;28;90581;-38
2023/09/09 00:10:38;;;;;;;15.68;14.02;;;18.40;99.90;;;;;;4947422;28;89326;-36
2023/09/09 00:13:05;;;;;;;16.83;15.18;;;18.40;99.90;;;;;;4946929;28;89770;-33
2023/09/09 00:15:33;;;;;;;17.17;15.57;;;18.30;99.90;;;;;;4958861;28;89986;-34
2023/09/09 00:18:00;;;;;;;19.42;16.15;;;18.20;99.90;;;;;;4958535;28;89555;-34
2023/09/09 00:20:38;;;;;;;15.40;13.13;;;18.20;99.90;;;;;;4959395;28;89782;-35
2023/09/09 00:23:07;;;;;;;18.20;16.48;;;18.20;99.90;;;;;;4959492;28;89018;-32
2023/09/09 00:25:40;;;;;;;31.35;22.42;;;18.20;99.90;;;;;;4959322;28;90314;-35
2023/09/09 00:28:07;;;;;;;20.55;18.20;;;18.30;99.90;;;;;;4958046;28;90088;-35
2023/09/09 00:30:32;;;;;;;18.95;17.15;;;18.20;99.90;;;;;;4959558;28;90055;-32
2023/09/09 00:32:58;;;;;;;21.38;17.08;;;18.20;99.90;;;;;;4958282;28;89746;-37
2023/09/09 00:35:24;;;;;;;24.00;19.65;;;18.20;99.90;;;;;;4959418;28;89370;-34
2023/09/09 00:37:50;;;;;;;18.85;15.90;;;18.20;99.90;;;;;;4942537;28;90801;-35
2023/09/09 00:40:16;;;;;;;14.70;13.20;;;18.10;99.90;;;;;;4939508;28;90030;-32
2023/09/09 00:42:41;;;;;;;14.52;11.85;;;18.20;99.90;;;;;;4940093;28;89978;-32
2023/09/09 00:45:07;;;;;;;15.25;13.75;;;18.20;99.90;;;;;;4940046;28;90248;-38
2023/09/09 00:47:37;;;;;;;14.45;12.77;;;18.20;99.90;;;;;;4940556;28;89168;-39
2023/09/09 00:50:05;;;;;;;15.70;14.00;;;18.10;99.90;;;;;;4939936;28;90516;-34
2023/09/09 00:52:31;;;;;;;;;;;18.20;99.90;;;;;;4940912;28;89520;-38
2023/09/09 00:54:57;;;;;;;16.13;14.57;;;18.10;99.90;;;;;;4941300;28;89212;-37
2023/09/09 00:57:23;;;;;;;16.20;14.57;;;18.10;99.90;;;;;;4939579;28;89898;-32
2023/09/09 00:59:49;;;;;;;15.43;13.93;;;18.10;99.90;;;;;;4949643;28;89298;-32
2023/09/09 01:02:14;;;;;;;14.80;13.30;;;18.10;99.90;;;;;;4940887;28;89829;-35
2023/09/09 01:04:40;;;;;;;16.23;14.15;;;18.10;99.90;;;;;;4940307;28;88019;-33
2023/09/09 01:07:07;;;;;;;16.55;14.85;;;18.10;99.90;;;;;;4942176;28;90075;-36
2023/09/09 01:09:33;;;;;;;16.92;14.45;;;18.10;99.90;;;;;;4948924;28;88804;-38
2023/09/09 01:11:59;;;;;;;16.80;15.20;;;18.00;99.90;;;;;;4939055;28;88943;-32
2023/09/09 01:14:25;;;;;;;18.83;16.58;;;18.00;99.90;;;;;;4939175;28;89656;-34
2023/09/09 01:16:53;;;;;;;17.02;15.38;;;18.00;99.90;;;;;;4956135;28;90218;-38
2023/09/09 01:19:21;;;;;;;18.07;16.17;;;18.00;99.90;;;;;;4957806;28;90385;-35
2023/09/09 01:21:47;;;;;;;19.10;16.00;;;18.00;99.90;;;;;;4957053;28;90784;-34
2023/09/09 01:24:15;;;;;;;15.95;14.43;;;18.00;99.90;;;;;;4957662;28;89455;-37
2023/09/09 01:26:44;;;;;;;18.90;15.03;;;17.90;99.90;;;;;;4956919;28;90038;-35
2023/09/09 01:29:10;;;;;;;15.57;14.05;;;17.90;99.90;;;;;;4957280;28;88601;-40
2023/09/09 01:31:36;;;;;;;15.88;14.25;;;17.90;99.90;;;;;;4945267;28;89735;-35
2023/09/09 01:34:01;;;;;;;15.85;14.18;;;17.90;99.90;;;;;;4942515;28;90247;-35
2023/09/09 01:36:27;;;;;;;18.67;14.90;;;17.90;99.90;;;;;;4938550;28;89117;-35
2023/09/09 01:38:53;;;;;;;17.70;15.82;;;17.90;99.90;;;;;;4938146;28;89817;-32
2023/09/09 01:41:18;;;;;;;15.00;13.32;;;17.90;99.90;;;;;;4938639;28;89806;-32
2023/09/09 01:43:44;;;;;;;17.10;15.40;;;17.90;99.90;;;;;;4938329;28;89905;-33
2023/09/09 01:46:10;;;;;;;17.23;15.45;;;17.90;99.90;;;;;;4931402;28;90098;-35
2023/09/09 01:48:36;;;;;;;17.05;15.30;;;17.90;99.90;;;;;;4932969;28;89715;-32
2023/09/09 01:51:02;;;;;;;18.83;17.02;;;17.90;99.90;;;;;;4930923;28;89878;-35
2023/09/09 01:53:28;;;;;;;19.75;17.40;;;17.80;99.90;;;;;;4920269;28;90375;-33
2023/09/09 01:55:56;;;;;;;20.50;16.88;;;17.80;99.90;;;;;;4926569;28;90272;-33
2023/09/09 01:58:21;;;;;;;19.67;17.70;;;17.70;99.90;;;;;;4937589;28;89325;-37
2023/09/09 02:00:48;;;;;;;20.15;18.13;;;17.60;99.90;;;;;;4938928;28;90586;-33
2023/09/09 02:03:13;;;;;;;18.55;16.73;;;17.50;99.90;;;;;;4937764;28;89619;-36
2023/09/09 02:05:39;;;;;;;19.45;17.35;;;17.50;99.90;;;;;;4951408;28;90255;-34
2023/09/09 02:08:05;;;;;;;18.98;17.13;;;17.60;99.90;;;;;;4938119;28;91021;-36
2023/09/09 02:10:31;;;;;;;19.58;17.65;;;17.60;99.90;;;;;;4932694;28;90398;-33
2023/09/09 02:12:57;;;;;;;20.70;18.50;;;17.60;99.90;;;;;;4920095;28;89347;-39
2023/09/09 02:15:22;;;;;;;22.00;19.98;;;17.60;99.90;;;;;;4924163;28;90279;-34
2023/09/09 02:17:48;;;;;;;20.38;18.35;;;17.60;99.90;;;;;;4937815;28;89500;-37
2023/09/09 02:20:14;;;;;;;21.88;19.65;;;17.60;99.90;;;;;;4938731;28;89888;-33
2023/09/09 02:22:39;;;;;;;26.17;23.05;;;17.60;99.90;;;;;;4937139;28;88705;-35
2023/09/09 02:25:07;;;;;;;29.20;26.08;;;17.60;99.90;;;;;;4938876;28;90768;-34
2023/09/09 02:27:33;;;;;;;28.50;25.05;;;17.60;99.90;;;;;;4938306;28;89475;-34
2023/09/09 02:29:58;;;;;;;24.10;21.52;;;17.60;99.90;;;;;;4938541;28;89610;-33
2023/09/09 02:32:24;;;;;;;24.83;22.30;;;17.60;99.90;;;;;;4938913;28;89696;-36
2023/09/09 02:34:50;;;;;;;27.27;24.38;;;17.60;99.90;;;;;;4956693;28;89966;-34
2023/09/09 02:37:17;;;;;;;26.23;20.60;;;17.60;99.90;;;;;;4956548;28;89842;-38
2023/09/09 02:39:50;;;;;;;25.15;22.52;;;17.50;99.90;;;;;;4957894;28;89553;-32
2023/09/09 02:42:21;;;;;;;31.65;28.25;;;17.60;99.90;;;;;;4956820;28;89657;-34
2023/09/09 02:44:49;;;;;;;31.40;28.10;;;17.50;99.90;;;;;;4956757;28;90534;-33
2023/09/09 02:47:15;;;;;;;29.63;26.33;;;17.50;99.90;;;;;;4957187;28;89265;-33
2023/09/09 02:49:43;;;;;;;29.88;26.88;;;17.40;99.90;;;;;;4961131;28;89163;-33
2023/09/09 02:52:09;;;;;;;;;;;17.40;99.90;;;;;;4961179;28;90030;-32
2023/09/09 02:54:35;;;;;;;21.60;19.27;;;17.30;99.90;;;;;;4962756;28;90293;-36
2023/09/09 02:57:03;;;;;;;19.27;17.33;;;17.20;99.90;;;;;;4959631;28;90751;-36
2023/09/09 02:59:30;;;;;;;27.98;24.20;;;17.20;99.90;;;;;;4959541;28;90138;-34
2023/09/09 03:01:55;;;;;;;24.75;22.13;;;17.20;99.90;;;;;;4950619;28;88382;-33
2023/09/09 03:04:21;;;;;;;33.67;28.63;;;17.20;99.90;;;;;;4953650;28;90849;-32
2023/09/09 03:06:46;;;;;;;25.92;23.33;;;17.20;99.90;;;;;;4947823;28;89723;-36
2023/09/09 03:09:13;;;;;;;30.73;27.48;;;17.20;99.90;;;;;;4944671;28;89303;-32
2023/09/09 03:11:39;;;;;;;27.85;24.85;;;17.20;99.90;;;;;;4957487;28;90169;-35
2023/09/09 03:14:05;;;;;;;26.75;22.08;;;17.20;99.90;;;;;;4952450;28;90905;-32
2023/09/09 03:16:30;;;;;;;28.52;25.45;;;17.20;99.90;;;;;;4950625;28;89496;-33
2023/09/09 03:18:56;;;;;;;24.92;22.33;;;17.20;99.90;;;;;;4942733;28;89741;-34
2023/09/09 03:21:21;;;;;;;31.85;28.45;;;17.20;99.90;;;;;;4945015;28;89703;-34
2023/09/09 03:23:47;;;;;;;29.83;25.48;;;17.20;99.90;;;;;;4950302;28;90178;-32
2023/09/09 03:26:18;;;;;;;31.23;26.90;;;17.20;99.90;;;;;;4945014;28;89885;-31
2023/09/09 03:28:45;;;;;;;29.25;26.27;;;17.20;99.90;;;;;;4941770;28;89790;-32
2023/09/09 03:31:11;;;;;;;27.70;24.73;;;17.20;99.90;;;;;;4942603;28;89557;-39
2023/09/09 03:33:37;;;;;;;27.83;23.77;;;17.30;99.90;;;;;;4951134;28;90334;-34
2023/09/09 03:36:03;;;;;;;30.13;26.92;;;17.20;99.90;;;;;;4943928;28;89542;-33
2023/09/09 03:38:29;;;;;;;30.45;27.23;;;17.20;99.90;;;;;;4942078;28;88677;-34
2023/09/09 03:40:54;;;;;;;31.05;27.92;;;17.20;99.90;;;;;;4954573;28;90041;-35
2023/09/09 03:43:20;;;;;;;28.23;25.15;;;17.20;99.90;;;;;;4951435;28;90369;-38
2023/09/09 03:45:46;;;;;;;29.02;26.00;;;17.20;99.90;;;;;;4943899;28;90792;-37
2023/09/09 03:48:12;;;;;;;31.45;28.27;;;17.20;99.90;;;;;;4940316;28;90177;-35
2023/09/09 03:50:37;;;;;;;31.05;27.52;;;17.20;99.90;;;;;;4953867;28;89005;-37
2023/09/09 03:53:03;;;;;;;35.75;28.77;;;17.10;99.90;;;;;;4941207;28;90537;-36
2023/09/09 03:55:29;;;;;;;29.92;27.00;;;17.10;99.90;;;;;;4946317;28;90706;-36
2023/09/09 03:57:55;;;;;;;32.33;28.23;;;17.10;99.90;;;;;;4949151;28;89431;-32
2023/09/09 04:00:20;;;;;;;28.55;25.52;;;17.10;99.90;;;;;;4954080;28;89540;-38
2023/09/09 04:02:46;;;;;;;25.73;22.98;;;17.10;99.90;;;;;;4940458;28;89487;-34
2023/09/09 04:05:12;;;;;;;27.33;24.38;;;17.10;99.90;;;;;;4939868;28;90544;-33
2023/09/09 04:07:40;;;;;;;32.65;28.48;;;17.10;99.90;;;;;;4940739;28;89461;-34
2023/09/09 04:10:06;;;;;;;;;;;17.10;99.90;;;;;;4942166;28;90028;-35
2023/09/09 04:12:32;;;;;;;30.90;26.20;;;17.10;99.90;;;;;;4944377;28;90022;-36
2023/09/09 04:14:57;;;;;;;30.48;26.83;;;17.10;99.90;;;;;;4953234;28;89796;-36
2023/09/09 04:17:23;;;;;;;35.33;29.77;;;17.10;99.90;;;;;;4949289;28;90437;-34
2023/09/09 04:19:49;;;;;;;39.78;32.10;;;17.00;99.90;;;;;;4945849;28;88376;-35
2023/09/09 04:22:14;;;;;;;30.30;27.35;;;17.10;99.90;;;;;;4959084;28;91992;-32
2023/09/09 04:24:40;;;;;;;35.15;29.13;;;17.10;99.90;;;;;;4957427;28;89831;-32
2023/09/09 04:27:05;;;;;;;29.73;26.52;;;17.10;99.90;;;;;;4959015;28;89462;-38
2023/09/09 04:29:31;;;;;;;31.75;28.08;;;17.00;99.90;;;;;;4956875;28;88319;-37
2023/09/09 04:31:58;;;;;;;28.70;25.80;;;17.10;99.90;;;;;;4959238;28;90274;-33
2023/09/09 04:34:24;;;;;;;29.10;26.17;;;17.10;99.90;;;;;;4957102;28;90694;-35
2023/09/09 04:36:50;;;;;;;32.25;28.98;;;17.10;99.90;;;;;;4957516;28;90545;-35
2023/09/09 04:39:15;;;;;;;31.88;27.85;;;17.10;99.90;;;;;;4957322;28;89495;-34
2023/09/09 04:41:42;;;;;;;33.53;29.85;;;17.10;99.90;;;;;;4969374;28;89790;-34
2023/09/09 04:44:09;;;;;;;31.70;28.33;;;17.10;99.90;;;;;;4958580;28;89657;-33
2023/09/09 04:46:34;;;;;;;31.25;27.95;;;17.10;99.90;;;;;;4958404;28;89466;-36
2023/09/09 04:49:00;;;;;;;31.25;27.85;;;17.20;99.90;;;;;;4957206;28;89335;-35
2023/09/09 04:51:26;;;;;;;33.90;30.30;;;17.20;99.90;;;;;;4958493;28;90354;-34
2023/09/09 04:53:52;;;;;;;32.40;28.98;;;17.20;99.90;;;;;;4957133;28;90538;-33
2023/09/09 04:56:18;;;;;;;34.80;31.05;;;17.10;99.90;;;;;;4957419;28;89975;-35
2023/09/09 04:58:44;;;;;;;32.42;29.02;;;17.00;99.90;;;;;;4955976;28;89065;-36
2023/09/09 05:01:09;;;;;;;32.15;28.70;;;17.00;99.90;;;;;;4954178;28;89576;-38
2023/09/09 05:03:35;;;;;;;29.42;26.23;;;16.90;99.90;;;;;;4958565;28;89456;-35
2023/09/09 05:06:01;;;;;;;29.92;25.00;;;16.90;99.90;;;;;;4958286;28;89688;-33
2023/09/09 05:08:27;;;;;;;28.95;25.92;;;16.90;99.90;;;;;;4940233;28;90215;-38
2023/09/09 05:10:53;;;;;;;33.55;29.88;;;16.90;99.90;;;;;;4957007;28;90473;-31
2023/09/09 05:13:18;;;;;;;32.53;28.88;;;16.90;99.90;;;;;;4957694;28;88522;-33
2023/09/09 05:15:44;;;;;;;34.72;29.45;;;17.00;99.90;;;;;;4958474;28;89984;-35
2023/09/09 05:18:10;;;;;;;32.55;27.60;;;17.00;99.90;;;;;;4957393;28;90495;-36
2023/09/09 05:20:35;;;;;;;34.33;28.48;;;17.10;99.90;;;;;;4958498;28;91063;-34
2023/09/09 05:23:01;;;;;;;35.63;30.40;;;17.10;99.90;;;;;;4957636;28;91611;-35
2023/09/09 05:25:27;;;;;;;33.13;28.77;;;17.10;99.90;;;;;;4957979;28;90062;-36
2023/09/09 05:27:53;;;;;;;33.38;29.73;;;17.10;99.90;;;;;;4958342;28;89885;-32
2023/09/09 05:30:19;;;;;;;33.50;30.10;;;17.10;99.90;;;;;;4958196;28;89418;-35
2023/09/09 05:32:44;;;;;;;35.80;31.88;;;17.20;99.90;;;;;;4957156;28;89779;-37
2023/09/09 05:35:11;;;;;;;34.35;30.80;;;17.20;99.90;;;;;;4957866;28;89816;-32
2023/09/09 05:37:37;;;;;;;34.28;30.58;;;17.30;99.90;;;;;;4957952;28;89505;-33
2023/09/09 05:40:03;;;;;;;37.88;33.88;;;17.30;99.90;;;;;;4958793;28;89960;-37
2023/09/09 05:42:29;;;;;;;41.03;35.08;;;17.30;99.90;;;;;;4957674;28;89910;-34
2023/09/09 05:44:54;;;;;;;44.28;37.70;;;17.30;99.90;;;;;;4957583;28;89732;-36
2023/09/09 05:47:20;;;;;;;41.28;35.08;;;17.30;99.90;;;;;;4957035;28;90079;-33
2023/09/09 05:49:46;;;;;;;35.70;31.75;;;17.30;99.90;;;;;;4957892;28;90707;-32
2023/09/09 05:52:12;;;;;;;41.38;34.22;;;17.30;99.90;;;;;;4956231;28;89197;-34
2023/09/09 05:54:38;;;;;;;34.42;29.08;;;17.30;99.90;;;;;;4957869;28;90286;-33
2023/09/09 05:57:04;;;;;;;33.15;28.77;;;17.40;99.90;;;;;;4958075;28;90094;-39
2023/09/09 05:59:31;;;;;;;32.33;28.90;;;17.40;99.90;;;;;;4951869;28;90861;-33
2023/09/09 06:01:56;;;;;;;34.67;31.02;;;17.40;99.90;;;;;;4954920;28;89314;-33
2023/09/09 06:04:22;;;;;;;33.38;29.95;;;17.40;99.90;;;;;;4962624;28;90261;-31
2023/09/09 06:06:48;;;;;;;34.20;30.55;;;17.40;99.90;;;;;;4958157;28;90117;-33
2023/09/09 06:09:14;;;;;;;32.25;27.15;;;17.50;99.90;;;;;;4957176;28;90294;-33
2023/09/09 06:11:40;;;;;;;35.28;31.52;;;17.50;99.90;;;;;;4956996;28;90803;-32
2023/09/09 06:14:06;;;;;;;35.08;31.35;;;17.50;99.90;;;;;;4957351;28;90450;-32
2023/09/09 06:16:32;;;;;;;35.45;31.75;;;17.50;99.90;;;;;;4958027;28;90201;-34
2023/09/09 06:18:58;;;;;;;36.17;32.15;;;17.60;99.90;;;;;;4961732;28;90073;-35
2023/09/09 06:21:25;;;;;;;39.05;34.78;;;17.70;99.90;;;;;;4965817;28;89560;-35
2023/09/09 06:23:50;;;;;;;45.80;35.85;;;17.70;99.90;;;;;;4960307;28;89233;-36
2023/09/09 06:26:16;;;;;;;41.92;37.42;;;17.70;99.90;;;;;;4960512;28;88771;-34
2023/09/09 06:28:41;;;;;;;42.38;37.85;;;17.80;99.90;;;;;;4961344;28;90970;-35
2023/09/09 06:31:07;;;;;;;44.30;39.63;;;17.80;99.90;;;;;;4961013;28;91664;-37
2023/09/09 06:33:33;;;;;;;41.72;37.08;;;17.90;99.90;;;;;;4960596;28;89792;-33
2023/09/09 06:35:59;;;;;;;49.10;41.97;;;17.90;99.90;;;;;;4960428;28;90042;-32
2023/09/09 06:38:25;;;;;;;46.33;41.38;;;17.90;99.90;;;;;;4960172;28;88836;-33
2023/09/09 06:40:51;;;;;;;50.13;44.67;;;18.00;99.90;;;;;;4960514;28;89252;-35
2023/09/09 06:43:21;;;;;;;51.88;46.20;;;18.10;99.90;;;;;;4960593;28;90230;-33
2023/09/09 06:45:47;;;;;;;54.00;48.20;;;18.20;99.90;;;;;;4960873;28;89435;-36
2023/09/09 06:48:17;;;;;;;52.92;47.45;;;18.30;99.90;;;;;;4959920;28;90350;-33
2023/09/09 06:50:48;;;;;;;51.28;45.67;;;18.40;99.90;;;;;;4960317;28;89412;-35
2023/09/09 06:53:15;;;;;;;50.85;45.58;;;18.50;99.90;;;;;;4961136;28;89667;-33
2023/09/09 06:55:43;;;;;;;53.42;47.55;;;18.60;99.90;;;;;;4960117;28;89675;-33
2023/09/09 06:58:09;;;;;;;52.08;46.60;;;18.80;99.90;;;;;;4942370;28;89251;-31
2023/09/09 07:00:35;;;;;;;52.25;46.05;;;18.90;99.90;;;;;;4956730;28;90938;-33
2023/09/09 07:03:01;;;;;;;52.50;46.88;;;19.10;99.90;;;;;;4956715;28;90250;-33
2023/09/09 07:05:26;;;;;;;53.60;47.35;;;19.30;99.90;;;;;;4955403;28;89541;-35
2023/09/09 07:07:52;;;;;;;47.20;42.15;;;19.50;99.90;;;;;;4957104;28;91135;-34
2023/09/09 07:10:18;;;;;;;50.33;44.25;;;19.60;99.90;;;;;;4957509;28;88561;-38
2023/09/09 07:12:43;;;;;;;48.45;43.25;;;19.80;99.90;;;;;;4956329;28;90460;-36
2023/09/09 07:15:09;;;;;;;48.22;41.83;;;20.10;99.90;;;;;;4954396;28;89675;-36
2023/09/09 07:17:35;;;;;;;45.28;40.83;;;20.30;99.90;;;;;;4956961;28;90488;-36
2023/09/09 07:20:01;;;;;;;48.20;40.35;;;20.50;99.90;;;;;;4955629;28;89667;-34
2023/09/09 07:22:27;;;;;;;37.13;33.35;;;20.70;99.90;;;;;;4956529;28;89311;-37
2023/09/09 07:24:52;;;;;;;33.70;30.40;;;20.90;99.90;;;;;;4956381;28;90434;-34
2023/09/09 07:27:18;;;;;;;38.03;32.33;;;21.20;99.90;;;;;;4956792;28;90560;-36
2023/09/09 07:29:44;;;;;;;35.67;29.30;;;21.40;99.90;;;;;;4956969;28;89736;-36
2023/09/09 07:32:09;;;;;;;33.30;29.77;;;21.70;99.90;;;;;;4955754;28;89347;-33
2023/09/09 07:34:35;;;;;;;38.22;34.13;;;21.70;99.90;;;;;;4955511;28;89585;-35
2023/09/09 07:37:01;;;;;;;37.67;33.42;;;22.10;99.90;;;;;;4956045;28;90871;-35
2023/09/09 07:39:27;;;;;;;40.70;36.30;;;22.20;99.90;;;;;;4955484;28;90399;-38
2023/09/09 07:41:53;;;;;;;36.25;32.42;;;22.30;99.90;;;;;;4957711;28;90088;-34
2023/09/09 07:44:19;;;;;;;34.03;29.52;;;22.50;99.90;;;;;;4955597;28;88567;-33
2023/09/09 07:46:44;;;;;;;40.97;32.28;;;22.70;99.90;;;;;;4956320;28;90196;-34
2023/09/09 07:49:10;;;;;;;38.05;33.92;;;22.90;99.90;;;;;;4955236;28;90775;-36
2023/09/09 07:51:36;;;;;;;33.38;29.77;;;23.00;99.90;;;;;;4957249;28;89456;-34
2023/09/09 07:54:01;;;;;;;36.28;32.55;;;23.10;99.90;;;;;;4955650;28;88779;-34
2023/09/09 07:56:27;;;;;;;35.22;31.42;;;23.30;99.90;;;;;;4956987;28;89827;-34
2023/09/09 07:58:53;;;;;;;36.78;32.83;;;23.40;99.90;;;;;;4956817;28;89703;-35
2023/09/09 08:01:19;;;;;;;36.95;32.97;;;23.60;99.90;;;;;;4956584;28;89855;-35
2023/09/09 08:03:45;;;;;;;43.20;32.92;;;23.70;99.90;;;;;;4953245;28;88638;-35
2023/09/09 08:06:10;;;;;;;35.80;30.80;;;23.90;99.90;;;;;;4952356;28;89887;-34
2023/09/09 08:08:36;;;;;;;32.75;28.60;;;24.00;99.90;;;;;;4956456;28;90245;-34
2023/09/09 08:11:05;;;;;;;33.28;29.63;;;24.20;99.90;;;;;;4949726;28;89544;-31
2023/09/09 08:13:31;;;;;;;41.63;35.28;;;24.30;99.90;;;;;;4947791;28;90611;-34
2023/09/09 08:16:00;;;;;;;31.50;28.23;;;24.40;99.90;;;;;;4943905;28;89235;-35
2023/09/09 08:18:26;;;;;;;36.08;32.22;;;24.60;99.90;;;;;;4955502;28;89454;-33
2023/09/09 08:20:53;;;;;;;34.15;30.08;;;24.70;99.90;;;;;;4956574;28;90348;-34
2023/09/09 08:23:19;;;;;;;37.50;33.35;;;24.90;99.90;;;;;;4955887;28;88702;-35
2023/09/09 08:25:45;;;;;;;35.05;31.40;;;25.00;99.90;;;;;;4955916;28;90620;-36
2023/09/09 08:28:11;;;;;;;33.70;30.30;;;25.10;99.90;;;;;;4956559;28;90139;-32
2023/09/09 08:30:36;;;;;;;33.00;29.30;;;25.20;99.90;;;;;;4955088;28;89426;-34
2023/09/09 08:33:02;;;;;;;35.58;31.23;;;25.40;99.90;;;;;;5003738;22;90019;-36
2023/09/09 08:35:32;;;;;;;33.25;29.67;;;25.20;99.90;;;;;;4995309;28;90359;-34
2023/09/09 08:37:59;;;;;;;33.83;28.38;;;25.30;99.90;;;;;;4981672;28;90613;-34
2023/09/09 08:40:29;;;;;;;30.33;27.23;;;25.40;99.90;;;;;;4995840;28;89923;-32
2023/09/09 08:43:04;;;;;;;29.77;26.75;;;25.50;99.90;;;;;;4983306;28;88943;-34
2023/09/09 08:45:59;;;;;;;32.80;29.02;;;25.70;99.90;;;;;;4994619;28;90298;-32
2023/09/09 08:48:27;;;;;;;37.47;27.60;;;25.70;99.90;;;;;;4995454;28;88878;-37
2023/09/09 08:50:56;;;;;;;29.00;25.80;;;25.90;99.90;;;;;;4995473;28;90561;-35
2023/09/09 08:53:26;;;;;;;33.08;28.40;;;26.00;99.90;;;;;;4994623;28;89489;-33
2023/09/09 08:55:55;;;;;;;26.65;23.90;;;25.90;99.90;;;;;;4996153;28;90068;-33
2023/09/09 08:58:21;;;;;;;26.00;22.55;;;26.10;99.90;;;;;;4995449;28;89804;-32
2023/09/09 09:00:47;;;;;;;25.50;23.00;;;26.20;99.90;;;;;;4995484;28;89624;-36
2023/09/09 09:03:14;;;;;;;25.73;22.95;;;26.30;99.90;;;;;;4994982;28;90832;-34
2023/09/09 09:05:41;;;;;;;27.45;24.83;;;26.40;99.90;;;;;;4995860;28;90305;-33
2023/09/09 09:08:09;;;;;;;26.02;23.33;;;26.40;99.90;;;;;;4976534;28;89956;-35
2023/09/09 09:10:40;;;;;;;22.02;19.75;;;26.30;99.90;;;;;;4989419;28;90124;-35
2023/09/09 09:13:06;;;;;;;25.27;21.00;;;26.40;99.90;;;;;;4993279;28;89833;-32
2023/09/09 09:15:38;;;;;;;17.92;16.17;;;26.60;99.90;;;;;;4994452;28;91111;-36
2023/09/09 09:18:04;;;;;;;21.92;19.35;;;26.60;99.90;;;;;;4995888;28;88533;-32
2023/09/09 09:20:31;;;;;;;22.70;19.90;;;26.60;99.90;;;;;;4995042;28;89309;-34
2023/09/09 09:23:05;;;;;;;24.98;18.20;;;26.80;99.90;;;;;;4994380;28;88727;-32
2023/09/09 09:25:41;;;;;;;21.73;19.33;;;26.90;99.90;;;;;;4994898;28;91915;-35
2023/09/09 09:28:07;;;;;;;23.17;20.98;;;26.90;99.90;;;;;;4994226;28;89850;-36
2023/09/09 09:30:34;;;;;;;23.95;21.15;;;27.00;99.90;;;;;;4995151;28;89424;-36
2023/09/09 09:33:00;;;;;;;22.25;19.85;;;27.10;99.90;;;;;;4995213;28;88449;-32
2023/09/09 09:35:32;;;;;;;22.90;20.60;;;27.20;99.90;;;;;;4995152;28;90435;-34
2023/09/09 09:38:00;;;;;;;24.08;19.63;;;27.20;99.90;;;;;;4982702;28;89604;-36
2023/09/09 09:40:26;;;;;;;;;;;27.30;99.90;;;;;;4994221;28;89137;-35
2023/09/09 09:42:52;;;;;;;23.35;21.00;;;27.50;99.90;;;;;;4984473;28;88847;-34
2023/09/09 09:45:25;;;;;;;18.60;16.85;;;27.60;99.90;;;;;;4994088;28;90069;-34
2023/09/09 09:47:52;;;;;;;21.35;19.25;;;27.60;99.90;;;;;;4987645;28;89703;-36
2023/09/09 09:50:31;;;;;;;21.30;18.40;;;27.70;99.90;;;;;;4990374;28;89958;-33
2023/09/09 09:53:04;;;;;;;22.65;20.35;;;27.70;99.90;;;;;;4995577;28;91543;-33
2023/09/09 09:55:33;;;;;;;21.08;19.05;;;27.80;99.90;;;;;;4994606;28;90399;-35
2023/09/09 09:58:08;;;;;;;18.02;16.08;;;27.80;99.90;;;;;;4995947;28;89674;-37
2023/09/09 10:00:34;;;;;;;22.35;17.58;;;28.00;99.90;;;;;;4985908;28;89791;-36
2023/09/09 10:03:02;;;;;;;17.55;15.95;;;27.70;99.90;;;;;;4997672;28;89177;-35
2023/09/09 10:05:29;;;;;;;18.35;16.63;;;27.70;99.90;;;;;;4997961;28;89753;-36
2023/09/09 10:08:16;;;;;;;17.05;15.20;;;27.80;99.90;;;;;;4998080;28;89942;-34
2023/09/09 10:10:53;;;;;;;19.77;14.77;;;28.00;99.90;;;;;;4991757;28;89620;-34
2023/09/09 10:13:21;;;;;;;16.70;14.90;;;28.00;99.90;;;;;;4993357;28;89663;-33
2023/09/09 10:15:48;;;;;;;;;;;28.10;99.90;;;;;;4998137;28;90228;-36
2023/09/09 10:18:16;;;;;;;16.45;14.93;;;28.00;99.90;;;;;;4999686;28;90685;-34
2023/09/09 10:20:42;;;;;;;18.15;16.23;;;28.10;99.90;;;;;;4998593;28;90476;-34
2023/09/09 10:23:08;;;;;;;15.13;13.20;;;28.20;99.90;;;;;;4997345;28;88769;-35
2023/09/09 10:25:34;;;;;;;16.40;14.65;;;28.40;99.90;;;;;;4998088;28;90333;-33
2023/09/09 10:28:01;;;;;;;17.95;15.25;;;28.50;99.90;;;;;;4997522;28;90192;-33
2023/09/09 10:30:28;;;;;;;18.30;16.38;;;28.30;99.90;;;;;;4997584;28;88401;-32
2023/09/09 10:32:58;;;;;;;15.45;13.85;;;28.60;99.90;;;;;;4997614;28;89386;-33
2023/09/09 10:35:24;;;;;;;16.05;14.32;;;28.70;99.90;;;;;;4996859;28;90435;-35
2023/09/09 10:37:51;;;;;;;23.45;15.30;;;28.80;99.90;;;;;;4997927;28;89597;-34
2023/09/09 10:40:17;;;;;;;15.63;14.02;;;28.40;99.90;;;;;;4997407;28;90165;-33
2023/09/09 10:42:44;;;;;;;14.05;12.68;;;28.50;99.90;;;;;;4996360;28;90598;-32
2023/09/09 10:45:30;;;;;;;13.90;12.60;;;28.60;99.90;;;;;;4996989;28;89757;-34
2023/09/09 10:47:58;;;;;;;17.90;15.70;;;28.70;99.90;;;;;;4987889;28;89469;-33
2023/09/09 10:50:36;;;;;;;;;;;28.40;99.90;;;;;;4996283;28;89367;-35
2023/09/09 10:53:29;;;;;;;20.80;14.35;;;28.30;99.90;;;;;;4999663;28;88692;-32
2023/09/09 10:56:16;;;;;;;14.77;13.15;;;28.60;99.90;;;;;;4987487;28;89903;-37
2023/09/09 10:58:43;;;;;;;15.98;14.23;;;28.50;99.90;;;;;;4996652;28;90206;-34
2023/09/09 11:01:21;;;;;;;24.93;15.03;;;28.70;99.90;;;;;;4997597;28;89843;-36
2023/09/09 11:03:48;;;;;;;16.90;15.35;;;28.80;99.90;;;;;;4996362;28;89177;-34
2023/09/09 11:06:25;;;;;;;16.73;14.90;;;28.80;99.90;;;;;;4997038;28;90532;-33
2023/09/09 11:08:54;;;;;;;20.55;18.40;;;28.80;99.90;;;;;;4987081;28;90768;-36
2023/09/09 11:11:38;;;;;;;20.33;16.55;;;28.70;99.90;;;;;;4984208;28;89534;-34
2023/09/09 11:14:05;;;;;;;19.05;16.27;;;28.70;99.90;;;;;;4985361;28;88603;-36
2023/09/09 11:16:39;;;;;;;16.55;13.88;;;28.70;99.90;;;;;;4979547;28;90553;-34
2023/09/09 11:19:06;;;;;;;19.63;17.63;;;28.80;99.90;;;;;;4997144;28;89780;-33
2023/09/09 11:21:34;;;;;;;19.00;15.97;;;28.70;99.90;;;;;;4996175;28;89141;-34
2023/09/09 11:24:01;;;;;;;17.35;15.63;;;28.70;99.90;;;;;;4997335;28;88052;-33
2023/09/09 11:26:27;;;;;;;17.58;15.88;;;28.60;99.90;;;;;;4997008;28;90243;-36
2023/09/09 11:28:53;;;;;;;17.38;15.57;;;28.80;99.90;;;;;;4996604;28;90159;-33
2023/09/09 11:31:19;;;;;;;17.85;16.05;;;28.80;99.90;;;;;;4996783;28;89478;-38
2023/09/09 11:33:45;;;;;;;28.52;18.15;;;28.70;99.90;;;;;;4996044;28;89546;-34
2023/09/09 11:36:14;;;;;;;19.58;17.55;;;28.80;99.90;;;;;;4995615;28;90196;-36
2023/09/09 11:38:40;;;;;;;17.38;15.10;;;28.60;99.90;;;;;;4996617;28;89898;-33
2023/09/09 11:41:06;;;;;;;16.40;14.77;;;28.70;99.90;;;;;;4997078;28;89601;-34
2023/09/09 11:43:32;;;;;;;15.50;14.10;;;28.80;99.90;;;;;;4995857;28;89198;-35
2023/09/09 11:45:58;;;;;;;17.50;15.80;;;28.80;99.90;;;;;;4984449;28;90256;-35
2023/09/09 11:48:24;;;;;;;17.77;15.18;;;28.90;99.90;;;;;;4996425;28;90773;-34
2023/09/09 11:50:50;;;;;;;18.33;16.40;;;29.00;99.90;;;;;;4996337;28;89068;-37
2023/09/09 11:53:18;;;;;;;22.60;15.90;;;29.00;99.90;;;;;;4996661;28;89062;-34
2023/09/09 11:55:44;;;;;;;14.63;13.38;;;29.00;99.90;;;;;;4996814;28;91031;-34
2023/09/09 11:58:10;;;;;;;16.35;12.82;;;29.10;99.90;;;;;;4976891;28;91529;-35
2023/09/09 12:00:35;;;;;;;19.35;14.35;;;29.10;99.90;;;;;;4996909;28;90783;-34
2023/09/09 12:03:01;;;;;;;16.02;14.07;;;29.10;99.90;;;;;;4995806;28;88748;-36
2023/09/09 12:05:29;;;;;;;16.70;14.95;;;29.10;99.90;;;;;;4995672;28;90157;-34
2023/09/09 12:08:01;;;;;;;16.52;14.85;;;29.00;99.90;;;;;;4996728;28;90321;-34
2023/09/09 12:10:33;;;;;;;16.08;14.38;;;28.90;99.90;;;;;;4990298;28;89973;-39
2023/09/09 12:12:59;;;;;;;15.15;13.43;;;28.90;99.90;;;;;;4988496;28;88365;-34
2023/09/09 12:15:26;;;;;;;17.20;15.48;;;29.00;99.90;;;;;;4996823;28;90388;-34
2023/09/09 12:17:52;;;;;;;18.20;16.00;;;29.00;99.90;;;;;;4983181;28;91526;-37
2023/09/09 12:20:18;;;;;;;17.70;16.00;;;28.80;99.90;;;;;;4995001;28;89438;-35
2023/09/09 12:22:47;;;;;;;16.88;14.20;;;28.90;99.90;;;;;;4995291;28;89638;-34
2023/09/09 12:25:33;;;;;;;14.15;12.80;;;28.90;99.90;;;;;;4984636;28;90739;-37
2023/09/09 12:27:59;;;;;;;18.02;15.52;;;28.80;99.90;;;;;;4995082;28;91259;-36